Time;durP1;ratioP1;P1;durP2;ratioP2;P2;SDS_P1;SDS_P2;PMS_P1;PMS_P2;Temp;Humidity;BMP_temperature;BMP_pressure;BME280_temperature;BME280_humidity;BME280_pressure;Samples;Min_cycle;Max_cycle;Signal;HPM_P1;HPM_P2
2022/05/04 00:01:08;;;;;;;2.00;1.27;;;;;;;;;;4979534;28;20066;-92
2022/05/04 00:03:39;;;;;;;1.75;1.42;;;;;;;;;;4974462;28;20031;-89
2022/05/04 00:06:09;;;;;;;1.88;1.38;;;;;;;;;;4972721;28;20491;-91
2022/05/04 00:08:35;;;;;;;3.05;1.73;;;;;;;;;;4974211;28;20039;-89
2022/05/04 00:11:00;;;;;;;2.70;1.55;;;;;;;;;;4975387;28;20105;-88
2022/05/04 00:13:27;;;;;;;1.88;1.27;;;;;;;;;;4975510;28;20530;-92
2022/05/04 00:15:53;;;;;;;3.03;1.90;;;;;;;;;;4973935;28;20050;-91
2022/05/04 00:18:18;;;;;;;1.52;1.20;;;;;;;;;;4978227;28;20030;-90
2022/05/04 00:20:44;;;;;;;4.07;1.35;;;;;;;;;;4972470;28;20046;-91
2022/05/04 00:23:09;;;;;;;3.20;1.27;;;;;;;;;;4974936;28;20030;-90
2022/05/04 00:25:35;;;;;;;2.13;1.58;;;;;;;;;;4975999;28;20035;-91
2022/05/04 00:28:02;;;;;;;1.20;1.10;;;;;;;;;;4973442;28;20134;-89
2022/05/04 00:30:31;;;;;;;2.15;1.55;;;;;;;;;;4974693;28;20027;-93
2022/05/04 00:32:59;;;;;;;1.88;1.45;;;;;;;;;;4975792;28;20403;-89
2022/05/04 00:35:25;;;;;;;1.85;1.50;;;;;;;;;;4988024;28;20049;-88
2022/05/04 00:37:51;;;;;;;3.13;2.20;;;;;;;;;;4979084;28;20495;-89
2022/05/04 00:40:16;;;;;;;1.88;1.40;;;;;;;;;;4992678;28;20046;-88
2022/05/04 00:42:42;;;;;;;1.88;1.30;;;;;;;;;;4979532;28;20047;-88
2022/05/04 00:45:08;;;;;;;2.92;1.40;;;;;;;;;;4980712;28;20042;-90
2022/05/04 00:47:34;;;;;;;1.70;1.27;;;;;;;;;;4978280;28;20038;-90
2022/05/04 00:50:04;;;;;;;1.60;1.35;;;;;;;;;;4978363;28;20088;-88
2022/05/04 00:52:34;;;;;;;3.88;1.75;;;;;;;;;;4975554;28;20402;-89
2022/05/04 00:55:01;;;;;;;3.55;1.67;;;;;;;;;;4975866;28;20497;-88
2022/05/04 01:00:13;;;;;;;1.55;1.20;;;;;;;;;;4987813;28;20129;-91
2022/05/04 01:02:40;;;;;;;2.65;1.58;;;;;;;;;;4979289;28;20475;-89
2022/05/04 01:05:09;;;;;;;3.60;1.50;;;;;;;;;;4976220;28;20478;-91
2022/05/04 01:07:36;;;;;;;1.83;1.40;;;;;;;;;;4978457;28;20034;-91
2022/05/04 01:10:03;;;;;;;2.42;1.80;;;;;;;;;;4975538;28;20031;-92
2022/05/04 01:12:29;;;;;;;3.28;1.60;;;;;;;;;;4988230;28;20394;-90
2022/05/04 01:14:54;;;;;;;2.28;1.45;;;;;;;;;;4982640;28;20035;-92
2022/05/04 01:17:20;;;;;;;2.60;1.75;;;;;;;;;;4984649;28;20042;-91
2022/05/04 01:19:46;;;;;;;2.35;1.63;;;;;;;;;;4977403;28;20438;-90
2022/05/04 01:22:11;;;;;;;3.65;1.60;;;;;;;;;;4981608;28;20027;-90
2022/05/04 01:24:38;;;;;;;2.72;1.95;;;;;;;;;;4981953;28;20406;-87
2022/05/04 01:27:04;;;;;;;2.85;1.98;;;;;;;;;;4979906;28;20054;-88
2022/05/04 01:29:30;;;;;;;3.58;1.88;;;;;;;;;;4974737;28;20042;-91
2022/05/04 01:31:55;;;;;;;3.83;2.20;;;;;;;;;;4976124;28;20058;-90
2022/05/04 01:34:21;;;;;;;3.95;2.15;;;;;;;;;;4978956;28;20098;-90
2022/05/04 01:36:46;;;;;;;4.53;2.00;;;;;;;;;;4977158;28;20039;-90
2022/05/04 01:39:12;;;;;;;4.07;2.05;;;;;;;;;;4976038;28;20061;-90
2022/05/04 01:44:24;;;;;;;2.42;1.73;;;;;;;;;;4982809;28;20077;-88
2022/05/04 01:46:49;;;;;;;2.38;1.42;;;;;;;;;;4975366;28;20443;-88
2022/05/04 01:49:14;;;;;;;1.77;1.40;;;;;;;;;;4989890;28;20042;-90
2022/05/04 01:51:40;;;;;;;1.90;1.52;;;;;;;;;;4973820;28;20039;-91
2022/05/04 01:54:05;;;;;;;2.15;1.80;;;;;;;;;;4976156;28;20089;-88
2022/05/04 01:56:31;;;;;;;1.98;1.33;;;;;;;;;;4975603;28;20031;-89
2022/05/04 01:58:56;;;;;;;1.73;1.20;;;;;;;;;;4978442;28;20472;-89
2022/05/04 02:01:22;;;;;;;2.50;1.88;;;;;;;;;;4976450;28;20061;-90
2022/05/04 02:03:47;;;;;;;2.53;1.80;;;;;;;;;;4982379;28;20038;-89
2022/05/04 02:06:14;;;;;;;3.10;1.50;;;;;;;;;;4973055;28;20034;-88
2022/05/04 02:08:41;;;;;;;1.75;1.40;;;;;;;;;;4974142;28;20553;-88
2022/05/04 02:11:07;;;;;;;1.95;1.60;;;;;;;;;;4979783;28;20509;-87
2022/05/04 02:13:32;;;;;;;3.35;1.90;;;;;;;;;;4974197;28;20030;-90
2022/05/04 02:15:58;;;;;;;2.17;1.70;;;;;;;;;;4978954;28;20044;-90
2022/05/04 02:18:23;;;;;;;1.95;1.30;;;;;;;;;;4976073;28;20035;-91
2022/05/04 02:20:49;;;;;;;2.45;2.08;;;;;;;;;;4976232;28;20074;-85
2022/05/04 02:23:14;;;;;;;3.20;1.38;;;;;;;;;;4975667;28;20038;-89
2022/05/04 02:25:40;;;;;;;1.27;1.13;;;;;;;;;;4983288;28;20178;-87
2022/05/04 02:28:05;;;;;;;2.05;1.50;;;;;;;;;;4972306;28;20121;-87
2022/05/04 02:30:31;;;;;;;2.28;1.63;;;;;;;;;;4980279;28;20041;-87
2022/05/04 02:32:56;;;;;;;1.60;1.20;;;;;;;;;;4976084;28;20038;-88
2022/05/04 02:38:06;;;;;;;1.15;1.05;;;;;;;;;;4979290;28;20067;-84
2022/05/04 02:40:31;;;;;;;1.98;1.52;;;;;;;;;;4972031;28;20046;-82
2022/05/04 02:42:57;;;;;;;3.53;1.45;;;;;;;;;;4980561;28;20082;-88
2022/05/04 02:45:22;;;;;;;2.85;1.77;;;;;;;;;;4975928;28;20436;-88
2022/05/04 02:47:48;;;;;;;2.85;1.83;;;;;;;;;;4976617;28;20039;-87
2022/05/04 02:50:13;;;;;;;2.40;2.00;;;;;;;;;;4991419;28;20668;-88
2022/05/04 02:52:38;;;;;;;3.88;1.58;;;;;;;;;;4977221;28;20450;-86
2022/05/04 02:55:05;;;;;;;4.55;1.50;;;;;;;;;;4982462;28;20475;-91
2022/05/04 02:57:30;;;;;;;1.95;1.50;;;;;;;;;;4975187;28;20043;-90
2022/05/04 02:59:56;;;;;;;1.80;1.35;;;;;;;;;;4974642;28;20479;-90
2022/05/04 03:02:27;;;;;;;1.92;1.35;;;;;;;;;;4984027;28;20062;-91
2022/05/04 03:05:02;;;;;;;3.65;1.55;;;;;;;;;;4973404;28;20395;-92
2022/05/04 03:07:28;;;;;;;3.55;1.60;;;;;;;;;;4978781;28;20034;-90
2022/05/04 03:09:58;;;;;;;2.17;1.50;;;;;;;;;;4983531;28;20046;-91
2022/05/04 03:12:24;;;;;;;3.00;1.40;;;;;;;;;;4975712;28;20038;-89
2022/05/04 03:14:49;;;;;;;3.58;1.90;;;;;;;;;;4987758;28;20478;-88
2022/05/04 03:17:16;;;;;;;2.47;1.80;;;;;;;;;;4974562;28;20039;-92
2022/05/04 03:19:41;;;;;;;3.80;2.05;;;;;;;;;;4976536;28;20502;-89
2022/05/04 03:22:07;;;;;;;3.15;1.90;;;;;;;;;;4984216;28;20101;-90
2022/05/04 03:24:36;;;;;;;2.17;1.40;;;;;;;;;;4975045;28;20391;-91
2022/05/04 03:27:02;;;;;;;3.10;1.40;;;;;;;;;;4979972;28;20038;-91
2022/05/04 03:29:27;;;;;;;2.42;1.50;;;;;;;;;;4975664;28;20422;-91
2022/05/04 03:31:53;;;;;;;2.28;1.60;;;;;;;;;;4972646;28;20518;-92
2022/05/04 03:34:18;;;;;;;2.30;1.50;;;;;;;;;;4976166;28;20037;-92
2022/05/04 03:36:45;;;;;;;2.85;1.30;;;;;;;;;;4973803;28;20101;-93
2022/05/04 03:39:10;;;;;;;2.85;1.55;;;;;;;;;;4984022;28;20501;-92
2022/05/04 03:41:36;;;;;;;2.50;1.58;;;;;;;;;;4974345;28;20034;-91
2022/05/04 03:44:02;;;;;;;2.50;1.35;;;;;;;;;;4969815;28;20050;-90
2022/05/04 03:46:40;;;;;;;4.88;1.67;;;;;;;;;;4972609;28;20041;-92
2022/05/04 03:49:07;;;;;;;2.67;1.80;;;;;;;;;;4984326;28;20034;-90
2022/05/04 03:51:33;;;;;;;4.60;1.60;;;;;;;;;;4972720;28;20041;-91
2022/05/04 03:53:58;;;;;;;1.40;1.30;;;;;;;;;;4972209;28;20035;-91
2022/05/04 03:56:24;;;;;;;1.83;1.27;;;;;;;;;;4974317;28;20027;-88
2022/05/04 03:58:52;;;;;;;2.25;1.23;;;;;;;;;;4976621;28;20053;-89
2022/05/04 04:01:18;;;;;;;1.65;1.25;;;;;;;;;;4974383;28;20043;-91
2022/05/04 04:03:44;;;;;;;1.80;1.20;;;;;;;;;;4967011;28;20035;-90
2022/05/04 04:06:16;;;;;;;1.75;1.20;;;;;;;;;;4980861;28;20085;-91
2022/05/04 04:08:42;;;;;;;2.97;1.20;;;;;;;;;;4978747;28;20046;-92
2022/05/04 04:11:08;;;;;;;4.10;1.50;;;;;;;;;;4978071;28;20483;-93
2022/05/04 04:13:34;;;;;;;1.33;1.15;;;;;;;;;;4976633;28;20514;-91
2022/05/04 04:15:59;;;;;;;3.92;2.95;;;;;;;;;;4981870;28;20043;-94
2022/05/04 04:18:26;;;;;;;4.80;3.05;;;;;;;;;;4977684;28;20038;-93
2022/05/04 04:23:37;;;;;;;5.25;3.83;;;;;;;;;;4988340;28;20113;-90
2022/05/04 04:26:04;;;;;;;5.70;3.75;;;;;;;;;;4983760;28;20035;-92
2022/05/04 04:28:30;;;;;;;5.38;3.95;;;;;;;;;;4990643;28;20501;-91
2022/05/04 04:30:56;;;;;;;5.10;3.17;;;;;;;;;;4979774;28;20073;-92
2022/05/04 04:33:26;;;;;;;5.63;3.10;;;;;;;;;;4981484;28;20119;-91
2022/05/04 04:35:55;;;;;;;4.28;3.05;;;;;;;;;;4979344;28;20035;-90
2022/05/04 04:38:21;;;;;;;6.07;3.92;;;;;;;;;;4980255;28;20418;-91
2022/05/04 04:40:46;;;;;;;4.05;3.10;;;;;;;;;;4976674;28;20117;-92
2022/05/04 04:43:12;;;;;;;4.07;3.22;;;;;;;;;;4976392;28;20069;-90
2022/05/04 04:45:38;;;;;;;4.47;3.80;;;;;;;;;;4989221;28;20085;-91
2022/05/04 04:48:04;;;;;;;6.20;4.63;;;;;;;;;;4979822;28;20125;-93
2022/05/04 04:50:29;;;;;;;6.55;4.20;;;;;;;;;;4981586;28;20050;-94
2022/05/04 04:52:55;;;;;;;5.90;4.28;;;;;;;;;;4993557;28;20038;-91
2022/05/04 04:55:20;;;;;;;6.13;4.90;;;;;;;;;;4976533;28;20085;-91
2022/05/04 04:57:46;;;;;;;9.07;6.10;;;;;;;;;;4977140;28;20058;-90
2022/05/04 05:00:12;;;;;;;8.07;5.93;;;;;;;;;;4978136;28;20048;-89
2022/05/04 05:02:37;;;;;;;9.90;7.20;;;;;;;;;;4981815;28;20043;-92
2022/05/04 05:05:06;;;;;;;12.32;7.70;;;;;;;;;;4977810;28;20130;-90
2022/05/04 05:07:32;;;;;;;11.73;7.97;;;;;;;;;;4987842;28;20073;-91
2022/05/04 05:09:57;;;;;;;11.20;8.23;;;;;;;;;;4978762;28;20039;-90
2022/05/04 05:12:23;;;;;;;10.98;8.35;;;;;;;;;;4975907;28;20046;-88
2022/05/04 05:17:34;;;;;;;11.40;8.18;;;;;;;;;;4991324;28;20049;-89
2022/05/04 05:20:00;;;;;;;10.38;8.25;;;;;;;;;;4986185;28;20034;-88
2022/05/04 05:22:25;;;;;;;12.20;8.15;;;;;;;;;;4977699;28;20035;-88
2022/05/04 05:24:51;;;;;;;12.50;8.23;;;;;;;;;;4974537;28;20049;-89
2022/05/04 05:27:17;;;;;;;13.82;8.80;;;;;;;;;;4989934;28;20035;-90
2022/05/04 05:29:42;;;;;;;9.93;8.52;;;;;;;;;;4987196;28;20042;-92
2022/05/04 05:32:08;;;;;;;14.55;8.50;;;;;;;;;;4984969;28;20539;-92
2022/05/04 05:34:34;;;;;;;9.90;7.25;;;;;;;;;;4972116;28;20411;-91
2022/05/04 05:37:01;;;;;;;13.25;8.32;;;;;;;;;;4973552;28;20070;-88
2022/05/04 05:39:26;;;;;;;10.02;7.25;;;;;;;;;;4979765;28;20058;-93
2022/05/04 05:41:52;;;;;;;10.45;7.85;;;;;;;;;;4975681;28;20526;-93
2022/05/04 05:44:17;;;;;;;11.95;9.30;;;;;;;;;;4977517;28;20038;-91
2022/05/04 05:46:43;;;;;;;14.75;8.13;;;;;;;;;;4975031;28;20101;-90
2022/05/04 05:49:21;;;;;;;12.45;8.65;;;;;;;;;;4976652;28;20039;-87
2022/05/04 05:51:47;;;;;;;12.02;8.48;;;;;;;;;;4982832;28;20487;-90
2022/05/04 05:54:12;;;;;;;12.23;9.70;;;;;;;;;;4974690;28;20041;-88
2022/05/04 05:56:43;;;;;;;14.43;8.23;;;;;;;;;;4974236;28;20042;-89
2022/05/04 05:59:09;;;;;;;12.88;9.48;;;;;;;;;;4976621;28;20038;-91
2022/05/04 06:01:34;;;;;;;12.82;9.45;;;;;;;;;;4976754;28;20046;-91
2022/05/04 06:04:00;;;;;;;10.70;9.15;;;;;;;;;;4985975;28;20030;-93
2022/05/04 06:06:25;;;;;;;11.20;9.02;;;;;;;;;;4975240;28;20483;-92
2022/05/04 06:08:51;;;;;;;13.60;8.95;;;;;;;;;;4976337;28;20034;-90
2022/05/04 06:11:16;;;;;;;15.02;9.90;;;;;;;;;;4984929;28;20073;-92
2022/05/04 06:13:42;;;;;;;12.70;8.73;;;;;;;;;;4984257;28;20041;-90
2022/05/04 06:16:08;;;;;;;19.77;12.35;;;;;;;;;;4975353;28;20268;-91
2022/05/04 06:18:34;;;;;;;16.55;8.90;;;;;;;;;;4976093;28;20849;-91
2022/05/04 06:21:00;;;;;;;11.02;8.38;;;;;;;;;;4986007;28;20548;-92
2022/05/04 06:23:25;;;;;;;12.18;8.43;;;;;;;;;;4974546;28;20034;-89
2022/05/04 06:25:51;;;;;;;11.32;9.23;;;;;;;;;;4973875;28;20046;-87
2022/05/04 06:28:16;;;;;;;14.60;9.32;;;;;;;;;;4984598;28;20371;-85
2022/05/04 06:36:10;;;;;;;12.82;8.65;;;;;;;;;;4983329;28;20038;-88
2022/05/04 06:38:35;;;;;;;13.75;8.43;;;;;;;;;;4975795;28;20399;-88
2022/05/04 06:41:00;;;;;;;9.88;8.30;;;;;;;;;;4984382;28;20405;-86
2022/05/04 06:43:27;;;;;;;10.27;8.68;;;;;;;;;;4987237;28;20460;-87
2022/05/04 06:45:53;;;;;;;14.32;8.32;;;;;;;;;;4972747;28;20034;-88
2022/05/04 06:48:18;;;;;;;14.98;10.07;;;;;;;;;;4975804;28;20403;-88
2022/05/04 06:50:44;;;;;;;13.05;10.07;;;;;;;;;;4978994;28;20038;-88
2022/05/04 06:53:09;;;;;;;13.50;8.90;;;;;;;;;;4973990;28;20086;-88
2022/05/04 06:55:34;;;;;;;14.18;9.75;;;;;;;;;;4978667;28;20035;-87
2022/05/04 06:58:00;;;;;;;12.38;9.32;;;;;;;;;;4987857;28;20045;-90
2022/05/04 07:00:26;;;;;;;12.13;9.70;;;;;;;;;;4973994;28;20081;-88
2022/05/04 07:02:51;;;;;;;13.20;9.80;;;;;;;;;;4987225;28;20430;-86
2022/05/04 07:05:17;;;;;;;12.10;9.52;;;;;;;;;;4973803;28;20515;-87
2022/05/04 07:07:43;;;;;;;14.77;9.70;;;;;;;;;;4981449;28;20058;-87
2022/05/04 07:10:09;;;;;;;14.32;9.55;;;;;;;;;;4972896;28;20038;-87
2022/05/04 07:12:34;;;;;;;13.38;9.52;;;;;;;;;;4975493;28;20058;-88
2022/05/04 07:15:00;;;;;;;15.57;10.63;;;;;;;;;;4973690;28;20038;-87
2022/05/04 07:17:26;;;;;;;11.25;9.55;;;;;;;;;;4973732;28;20038;-86
2022/05/04 07:19:54;;;;;;;12.18;9.77;;;;;;;;;;4983715;28;20402;-87
2022/05/04 07:22:25;;;;;;;18.75;10.05;;;;;;;;;;4977302;28;20118;-86
2022/05/04 07:24:51;;;;;;;14.35;10.15;;;;;;;;;;4982710;28;20406;-87
2022/05/04 07:27:16;;;;;;;12.80;10.98;;;;;;;;;;4978432;28;20031;-89
2022/05/04 07:29:46;;;;;;;13.15;10.20;;;;;;;;;;4974796;28;20027;-86
2022/05/04 07:32:13;;;;;;;15.32;11.70;;;;;;;;;;4978917;28;20034;-85
2022/05/04 07:34:38;;;;;;;13.95;10.88;;;;;;;;;;4975858;28;20033;-86
2022/05/04 07:37:04;;;;;;;14.68;11.05;;;;;;;;;;4973787;28;20419;-85
2022/05/04 07:42:21;;;;;;;17.85;11.20;;;;;;;;;;4985858;28;20065;-84
2022/05/04 07:44:50;;;;;;;14.35;12.23;;;;;;;;;;4978297;28;20034;-86
2022/05/04 07:47:17;;;;;;;20.35;13.57;;;;;;;;;;4977584;28;20031;-87
2022/05/04 07:49:43;;;;;;;17.10;11.98;;;;;;;;;;4984490;28;20034;-91
2022/05/04 07:52:09;;;;;;;17.00;11.70;;;;;;;;;;4977959;28;20116;-82
2022/05/04 07:54:34;;;;;;;17.80;11.65;;;;;;;;;;4979287;28;20503;-87
2022/05/04 07:57:00;;;;;;;13.40;11.73;;;;;;;;;;4976497;28;20049;-82
2022/05/04 07:59:25;;;;;;;14.57;11.27;;;;;;;;;;4983255;28;20545;-84
2022/05/04 08:04:42;;;;;;;15.75;11.10;;;;;;;;;;4968149;28;20053;-84
2022/05/04 08:07:08;;;;;;;16.45;11.05;;;;;;;;;;4974828;28;20035;-89
2022/05/04 08:09:36;;;;;;;16.20;11.20;;;;;;;;;;4972663;28;20043;-86
2022/05/04 08:12:06;;;;;;;15.65;10.57;;;;;;;;;;4975533;28;20066;-86
2022/05/04 08:14:34;;;;;;;15.48;11.38;;;;;;;;;;4981662;28;20038;-85
2022/05/04 08:17:00;;;;;;;16.08;10.20;;;;;;;;;;4983952;28;20508;-88
2022/05/04 08:19:26;;;;;;;18.83;11.23;;;;;;;;;;4974294;28;20039;-86
2022/05/04 08:21:52;;;;;;;14.50;9.77;;;;;;;;;;4976235;28;20045;-86
2022/05/04 08:24:18;;;;;;;14.77;9.55;;;;;;;;;;4986238;28;20545;-84
2022/05/04 08:26:43;;;;;;;15.65;10.80;;;;;;;;;;4976643;28;20039;-85
2022/05/04 08:29:09;;;;;;;9.95;8.65;;;;;;;;;;4983598;28;20034;-86
2022/05/04 08:31:36;;;;;;;12.95;9.57;;;;;;;;;;4977903;28;20109;-85
2022/05/04 08:34:02;;;;;;;11.88;9.23;;;;;;;;;;4974850;28;20045;-85
2022/05/04 08:36:27;;;;;;;12.40;7.88;;;;;;;;;;4983675;28;20043;-85
2022/05/04 08:38:53;;;;;;;10.90;7.78;;;;;;;;;;4985174;28;20099;-85
2022/05/04 08:41:20;;;;;;;10.13;6.88;;;;;;;;;;4980194;28;20850;-84
2022/05/04 08:43:48;;;;;;;12.07;7.93;;;;;;;;;;4979928;28;20047;-86
2022/05/04 08:46:17;;;;;;;11.90;6.07;;;;;;;;;;4981200;28;20038;-85
2022/05/04 08:48:44;;;;;;;8.23;5.70;;;;;;;;;;4975199;28;20391;-85
2022/05/04 08:51:10;;;;;;;7.43;5.72;;;;;;;;;;4983529;28;20027;-86
2022/05/04 08:53:37;;;;;;;9.82;5.00;;;;;;;;;;4980743;28;20033;-85
2022/05/04 08:56:03;;;;;;;10.70;5.38;;;;;;;;;;4976663;28;20034;-87
2022/05/04 08:58:30;;;;;;;8.65;5.35;;;;;;;;;;4976312;28;20144;-86
2022/05/04 09:00:55;;;;;;;5.40;3.90;;;;;;;;;;4977064;28;20510;-85
2022/05/04 09:03:22;;;;;;;8.00;4.68;;;;;;;;;;4979200;28;20030;-86
2022/05/04 09:05:48;;;;;;;8.52;3.50;;;;;;;;;;4975185;28;20037;-86
2022/05/04 09:08:14;;;;;;;5.78;3.88;;;;;;;;;;4986816;28;20061;-85
2022/05/04 09:10:44;;;;;;;3.90;3.10;;;;;;;;;;4976628;28;20447;-85
2022/05/04 09:13:09;;;;;;;3.95;2.90;;;;;;;;;;4975852;28;20521;-87
2022/05/04 09:15:37;;;;;;;5.25;2.75;;;;;;;;;;4983203;28;20102;-83
2022/05/04 09:18:07;;;;;;;3.78;2.53;;;;;;;;;;4983465;28;20091;-87
2022/05/04 09:20:55;;;;;;;5.13;2.83;;;;;;;;;;4983316;28;20042;-86
2022/05/04 09:23:26;;;;;;;3.95;2.47;;;;;;;;;;4975194;28;20030;-86
2022/05/04 09:25:53;;;;;;;4.05;2.22;;;;;;;;;;4973937;28;20035;-85
2022/05/04 09:28:19;;;;;;;3.58;2.42;;;;;;;;;;4979208;28;20038;-87
2022/05/04 09:30:50;;;;;;;4.22;2.15;;;;;;;;;;4980593;28;20035;-86
2022/05/04 09:33:18;;;;;;;3.33;2.10;;;;;;;;;;4976132;28;20055;-86
2022/05/04 09:35:44;;;;;;;3.10;1.90;;;;;;;;;;4974647;28;20035;-86
2022/05/04 09:46:43;;;;;;;4.72;2.25;;;;;;;;;;4983218;28;20049;-88
2022/05/04 09:49:14;;;;;;;3.38;2.20;;;;;;;;;;4979851;28;20117;-85
2022/05/04 09:51:50;;;;;;;3.55;2.10;;;;;;;;;;4982738;28;20034;-86
2022/05/04 09:54:17;;;;;;;3.13;2.08;;;;;;;;;;4975114;28;20038;-85
2022/05/04 09:56:44;;;;;;;3.13;2.25;;;;;;;;;;4982052;28;20041;-88
2022/05/04 09:59:13;;;;;;;3.45;2.08;;;;;;;;;;4977912;28;20034;-84
2022/05/04 10:01:40;;;;;;;4.13;2.70;;;;;;;;;;4980287;28;20109;-85
2022/05/04 10:04:06;;;;;;;3.88;2.15;;;;;;;;;;4977434;28;20268;-86
2022/05/04 10:06:32;;;;;;;4.32;2.40;;;;;;;;;;4985254;28;20034;-87
2022/05/04 10:08:58;;;;;;;6.28;2.58;;;;;;;;;;4975647;28;20027;-82
2022/05/04 10:11:23;;;;;;;2.63;2.30;;;;;;;;;;4984202;28;20375;-82
2022/05/04 10:13:55;;;;;;;3.53;2.17;;;;;;;;;;4982978;28;20082;-87
2022/05/04 10:16:22;;;;;;;3.10;2.20;;;;;;;;;;4973148;28;20097;-88
2022/05/04 10:18:49;;;;;;;3.13;2.33;;;;;;;;;;4974334;28;20126;-85
2022/05/04 10:21:17;;;;;;;3.78;2.22;;;;;;;;;;4979886;28;20066;-85
2022/05/04 10:23:49;;;;;;;3.00;2.00;;;;;;;;;;4982618;28;20443;-86
2022/05/04 10:26:14;;;;;;;3.60;2.50;;;;;;;;;;4981500;28;20026;-86
2022/05/04 10:31:28;;;;;;;6.93;3.97;;;;;;;;;;4982906;28;20053;-88
2022/05/04 10:33:56;;;;;;;3.33;2.42;;;;;;;;;;4983943;28;20030;-86
2022/05/04 10:36:29;;;;;;;7.43;4.13;;;;;;;;;;4983461;28;20089;-85
2022/05/04 10:38:56;;;;;;;3.50;3.03;;;;;;;;;;4984382;28;20110;-87
2022/05/04 10:41:38;;;;;;;6.82;3.20;;;;;;;;;;4982363;28;20040;-84
2022/05/04 10:44:08;;;;;;;3.88;2.20;;;;;;;;;;4970905;28;20572;-84
2022/05/04 10:46:38;;;;;;;2.90;2.13;;;;;;;;;;4980627;28;21277;-84
2022/05/04 10:49:05;;;;;;;7.82;4.72;;;;;;;;;;4980117;28;20057;-87
2022/05/04 10:51:42;;;;;;;6.65;3.78;;;;;;;;;;4982043;28;20111;-85
2022/05/04 10:54:17;;;;;;;6.47;3.47;;;;;;;;;;4983615;28;20365;-85
2022/05/04 10:56:46;;;;;;;7.88;3.97;;;;;;;;;;4973555;28;20057;-84
2022/05/04 10:59:23;;;;;;;5.35;3.25;;;;;;;;;;4982730;28;20088;-86
2022/05/04 11:01:48;;;;;;;7.32;4.60;;;;;;;;;;4974146;28;20104;-87
2022/05/04 11:04:26;;;;;;;3.17;1.95;;;;;;;;;;4978597;28;20030;-86
2022/05/04 11:07:04;;;;;;;2.17;1.80;;;;;;;;;;4981896;28;20034;-84
2022/05/04 11:09:38;;;;;;;8.00;4.38;;;;;;;;;;4979516;28;20510;-86
2022/05/04 11:12:05;;;;;;;4.28;2.15;;;;;;;;;;4976648;28;20172;-86
2022/05/04 11:14:32;;;;;;;2.72;1.65;;;;;;;;;;4974208;28;20046;-85
2022/05/04 11:16:59;;;;;;;2.53;1.70;;;;;;;;;;4981192;28;20043;-85
2022/05/04 11:19:26;;;;;;;2.28;1.63;;;;;;;;;;4973480;28;20931;-84
2022/05/04 11:21:53;;;;;;;3.67;2.15;;;;;;;;;;4978426;28;20378;-85
2022/05/04 11:24:19;;;;;;;18.38;8.68;;;;;;;;;;4980541;28;20034;-84
2022/05/04 11:26:50;;;;;;;8.90;4.57;;;;;;;;;;4983870;28;20092;-85
2022/05/04 11:29:27;;;;;;;7.43;2.42;;;;;;;;;;4981763;28;20030;-84
2022/05/04 11:31:56;;;;;;;3.13;1.75;;;;;;;;;;4974200;28;20089;-84
2022/05/04 11:34:28;;;;;;;5.35;3.58;;;;;;;;;;4974166;28;20505;-85
2022/05/04 11:36:57;;;;;;;5.38;3.08;;;;;;;;;;4986748;28;20110;-84
2022/05/04 11:39:25;;;;;;;3.23;1.80;;;;;;;;;;4978108;28;20475;-84
2022/05/04 11:41:52;;;;;;;3.63;2.00;;;;;;;;;;4979810;28;20041;-86
2022/05/04 11:44:23;;;;;;;4.15;1.92;;;;;;;;;;4974005;28;20102;-84
2022/05/04 11:46:53;;;;;;;5.00;2.50;;;;;;;;;;4981392;28;20061;-86
2022/05/04 11:49:20;;;;;;;3.08;1.80;;;;;;;;;;4973762;28;20039;-86
2022/05/04 11:51:46;;;;;;;2.25;1.65;;;;;;;;;;4986253;28;20041;-88
2022/05/04 11:54:12;;;;;;;3.25;1.83;;;;;;;;;;4977909;28;20031;-85
2022/05/04 11:56:37;;;;;;;3.33;2.10;;;;;;;;;;4979836;28;20070;-84
2022/05/04 11:59:03;;;;;;;3.00;1.50;;;;;;;;;;4981128;28;20049;-88
2022/05/04 12:01:30;;;;;;;6.05;3.28;;;;;;;;;;4978442;28;20050;-85
2022/05/04 12:03:55;;;;;;;6.18;3.22;;;;;;;;;;4980316;28;20135;-87
2022/05/04 12:06:22;;;;;;;7.57;4.85;;;;;;;;;;4972237;28;20031;-86
2022/05/04 12:08:47;;;;;;;2.92;2.10;;;;;;;;;;4978708;28;20043;-86
2022/05/04 12:11:15;;;;;;;2.10;1.90;;;;;;;;;;4972304;28;20034;-87
2022/05/04 12:13:42;;;;;;;4.28;1.95;;;;;;;;;;4972962;28;20034;-86
2022/05/04 12:16:10;;;;;;;5.85;2.92;;;;;;;;;;4988156;28;20038;-86
2022/05/04 12:18:37;;;;;;;6.45;2.63;;;;;;;;;;4979323;28;20043;-86
2022/05/04 12:21:14;;;;;;;2.03;1.67;;;;;;;;;;4977609;28;20033;-86
2022/05/04 12:23:44;;;;;;;3.63;1.90;;;;;;;;;;4970118;28;20039;-86
2022/05/04 12:26:12;;;;;;;2.15;1.50;;;;;;;;;;4977869;28;20094;-86
2022/05/04 12:28:38;;;;;;;3.40;1.80;;;;;;;;;;4978509;28;20042;-87
2022/05/04 12:33:49;;;;;;;4.68;2.10;;;;;;;;;;4984732;28;20041;-86
2022/05/04 12:36:18;;;;;;;3.92;1.90;;;;;;;;;;4984209;28;20035;-84
2022/05/04 12:38:48;;;;;;;1.85;1.65;;;;;;;;;;4988333;28;20483;-86
2022/05/04 12:41:21;;;;;;;4.28;1.58;;;;;;;;;;4985760;28;20039;-86
2022/05/04 12:43:50;;;;;;;2.22;1.42;;;;;;;;;;4982389;28;20546;-87
2022/05/04 12:46:17;;;;;;;2.00;1.60;;;;;;;;;;4983852;28;20022;-87
2022/05/04 12:48:44;;;;;;;3.75;1.95;;;;;;;;;;4976878;28;20038;-86
2022/05/04 12:51:11;;;;;;;2.60;1.42;;;;;;;;;;4975014;28;20046;-85
2022/05/04 12:53:40;;;;;;;2.35;1.88;;;;;;;;;;4979190;28;20037;-87
2022/05/04 12:58:51;;;;;;;2.00;1.50;;;;;;;;;;4985300;28;20728;-86
2022/05/04 13:01:21;;;;;;;3.30;1.55;;;;;;;;;;4983051;28;20034;-87
2022/05/04 13:03:46;;;;;;;2.22;1.50;;;;;;;;;;4978020;28;20038;-85
2022/05/04 13:06:12;;;;;;;5.13;1.60;;;;;;;;;;4984686;28;20037;-86
2022/05/04 13:08:37;;;;;;;1.77;1.30;;;;;;;;;;4983476;28;20566;-85
2022/05/04 13:11:04;;;;;;;1.85;1.50;;;;;;;;;;4981729;28;20053;-87
2022/05/04 13:13:30;;;;;;;3.88;2.08;;;;;;;;;;4974782;28;20447;-87
2022/05/04 13:15:56;;;;;;;2.15;1.30;;;;;;;;;;4976008;28;20041;-86
2022/05/04 13:18:22;;;;;;;2.30;2.10;;;;;;;;;;4978902;28;20376;-87
2022/05/04 13:20:48;;;;;;;4.68;1.77;;;;;;;;;;4979427;28;20073;-88
2022/05/04 13:23:14;;;;;;;2.22;1.60;;;;;;;;;;4976227;28;20839;-88
2022/05/04 13:25:40;;;;;;;2.25;1.50;;;;;;;;;;4985347;28;20113;-86
2022/05/04 13:28:07;;;;;;;2.20;1.50;;;;;;;;;;4975143;28;20068;-87
2022/05/04 13:30:33;;;;;;;2.75;1.77;;;;;;;;;;4977880;28;20043;-86
2022/05/04 13:33:01;;;;;;;2.00;1.60;;;;;;;;;;4976205;28;20054;-86
2022/05/04 13:35:26;;;;;;;4.22;1.90;;;;;;;;;;4974722;28;20109;-87
2022/05/04 13:37:52;;;;;;;2.63;1.45;;;;;;;;;;4987141;28;20114;-90
2022/05/04 13:40:18;;;;;;;3.00;1.33;;;;;;;;;;4975145;28;20084;-89
2022/05/04 13:42:43;;;;;;;3.67;1.48;;;;;;;;;;4978928;28;20035;-89
2022/05/04 13:45:10;;;;;;;3.03;1.60;;;;;;;;;;4983944;28;20069;-87
2022/05/04 13:47:36;;;;;;;2.35;1.48;;;;;;;;;;4974628;28;20502;-90
2022/05/04 13:50:03;;;;;;;1.90;1.40;;;;;;;;;;4984932;28;20053;-88
2022/05/04 13:55:12;;;;;;;3.58;2.05;;;;;;;;;;4976225;28;20037;-89
2022/05/04 13:57:39;;;;;;;2.10;1.35;;;;;;;;;;4974980;28;20483;-89
2022/05/04 14:00:07;;;;;;;3.00;1.80;;;;;;;;;;4978656;28;20027;-88
2022/05/04 14:02:33;;;;;;;2.22;1.50;;;;;;;;;;4979497;28;20055;-88
2022/05/04 14:04:59;;;;;;;3.33;1.50;;;;;;;;;;4976631;28;20047;-88
2022/05/04 14:07:25;;;;;;;2.38;1.60;;;;;;;;;;4975401;28;20042;-91
2022/05/04 14:09:51;;;;;;;2.75;1.58;;;;;;;;;;4974786;28;20121;-90
2022/05/04 14:12:17;;;;;;;2.70;1.30;;;;;;;;;;4980762;28;20031;-90
2022/05/04 14:17:26;;;;;;;2.60;1.50;;;;;;;;;;4979851;28;20538;-89
2022/05/04 14:19:51;;;;;;;2.65;1.85;;;;;;;;;;4978997;28;20070;-89
2022/05/04 14:22:17;;;;;;;2.97;1.83;;;;;;;;;;4974261;28;20387;-87
2022/05/04 14:24:43;;;;;;;5.20;1.80;;;;;;;;;;4974310;28;20031;-88
2022/05/04 14:27:09;;;;;;;3.50;1.55;;;;;;;;;;4983992;28;20038;-86
2022/05/04 14:29:35;;;;;;;3.58;1.30;;;;;;;;;;4986227;28;20097;-88
2022/05/04 14:32:00;;;;;;;3.28;1.60;;;;;;;;;;4973217;28;20399;-89
2022/05/04 14:34:26;;;;;;;3.13;1.60;;;;;;;;;;4973883;28;20039;-90
2022/05/04 14:36:51;;;;;;;2.15;1.40;;;;;;;;;;4975243;28;20074;-87
2022/05/04 14:39:17;;;;;;;2.97;2.00;;;;;;;;;;4977248;28;20069;-90
2022/05/04 14:41:42;;;;;;;4.18;2.00;;;;;;;;;;4980536;28;20072;-88
2022/05/04 14:44:08;;;;;;;2.95;1.75;;;;;;;;;;4983886;28;20050;-89
2022/05/04 14:46:33;;;;;;;1.70;1.58;;;;;;;;;;4982038;28;20148;-90
2022/05/04 14:48:59;;;;;;;1.98;1.60;;;;;;;;;;4982113;28;20038;-89
2022/05/04 14:51:25;;;;;;;7.65;2.00;;;;;;;;;;4975434;28;20038;-91
2022/05/04 14:53:53;;;;;;;4.65;1.58;;;;;;;;;;4982277;28;20037;-90
2022/05/04 14:56:19;;;;;;;2.00;1.50;;;;;;;;;;4972810;28;20113;-89
2022/05/04 14:58:45;;;;;;;2.95;1.73;;;;;;;;;;4974777;28;20059;-88
2022/05/04 15:01:11;;;;;;;4.00;1.30;;;;;;;;;;4973593;28;20038;-88
2022/05/04 15:06:21;;;;;;;4.05;1.65;;;;;;;;;;4975423;28;20042;-87
2022/05/04 15:08:47;;;;;;;3.10;1.83;;;;;;;;;;4976323;28;20092;-86
2022/05/04 15:11:12;;;;;;;3.17;1.85;;;;;;;;;;4975553;28;20114;-84
2022/05/04 15:13:38;;;;;;;3.22;1.70;;;;;;;;;;4982894;28;20451;-85
2022/05/04 15:16:04;;;;;;;3.88;1.52;;;;;;;;;;4977456;28;20479;-85
2022/05/04 15:18:29;;;;;;;2.35;2.15;;;;;;;;;;4984213;28;20119;-87
2022/05/04 15:20:56;;;;;;;4.28;1.95;;;;;;;;;;4972461;28;20039;-87
2022/05/04 15:23:21;;;;;;;6.57;1.95;;;;;;;;;;4979237;28;20034;-87
2022/05/04 15:25:47;;;;;;;4.80;1.70;;;;;;;;;;4976476;28;20041;-84